Terminal Aerodrome Forecast
Issued by NWS Bismarck, ND

Home | Current Version | Previous Version | Text Only | Print | Product List | Glossary On
Versions: 1 2 3 4 5 6 7 8 9 10 11 12 13 14 15 16 17 18 19 20 21 22 23 24
028
FTUS43 KBIS 210545
TAFBIS
TAF
KBIS 210545Z 2106/2206 29003KT 2SM -FZDZ BR OVC010
      TEMPO 2106/2110 1/2SM FZFG OVC008
     FM211000 28003KT 1/2SM FZFG OVC003
     FM211600 28004KT 2SM -FZDZ BR OVC005
     FM212000 29005KT 5SM BR OVC008=

USA.gov is the U.S. government's official web portal to all federal, state and local government web resources and services.